Time;durP1;ratioP1;P1;durP2;ratioP2;P2;SDS_P1;SDS_P2;PMS_P1;PMS_P2;Temp;Humidity;BMP_temperature;BMP_pressure;BME280_temperature;BME280_humidity;BME280_pressure;Samples;Min_cycle;Max_cycle;Signal;HPM_P1;HPM_P2
2023/06/12 05:00:25;;;;;;;8.00;7.30;;;20.00;97.20;;;;;;1720256;28;20189;-70
2023/06/12 05:01:19;;;;;;;7.25;6.65;;;20.00;97.20;;;;;;1718415;28;20201;-70
2023/06/12 05:02:11;;;;;;;6.95;6.35;;;20.10;97.20;;;;;;1720473;28;20213;-71
2023/06/12 05:03:02;;;;;;;6.88;6.15;;;20.10;97.20;;;;;;1720606;28;20655;-71
2023/06/12 05:03:54;;;;;;;7.57;6.88;;;20.10;97.20;;;;;;1720648;28;20212;-70
2023/06/12 05:04:45;;;;;;;7.40;6.70;;;20.20;97.20;;;;;;1720606;28;20212;-70
2023/06/12 05:05:36;;;;;;;6.67;6.07;;;20.20;97.20;;;;;;1720972;28;20205;-70
2023/06/12 05:06:28;;;;;;;7.57;6.97;;;20.20;97.20;;;;;;1720691;28;20657;-70
2023/06/12 05:07:21;;;;;;;7.47;6.82;;;20.20;97.20;;;;;;1720784;28;20197;-70
2023/06/12 05:08:13;;;;;;;7.38;6.68;;;20.30;97.20;;;;;;1720586;28;20201;-70
2023/06/12 05:09:07;;;;;;;7.80;6.75;;;20.30;97.20;;;;;;1720743;28;20239;-70
2023/06/12 05:09:58;;;;;;;8.05;6.90;;;20.30;97.20;;;;;;1720700;28;20275;-70
2023/06/12 05:10:49;;;;;;;7.30;6.63;;;20.30;97.20;;;;;;1720595;28;20295;-70
2023/06/12 05:11:40;;;;;;;9.30;6.43;;;20.40;97.20;;;;;;1719916;28;20232;-70
2023/06/12 05:12:32;;;;;;;7.07;6.37;;;20.40;97.20;;;;;;1720683;28;20194;-71
2023/06/12 05:13:22;;;;;;;7.05;6.43;;;20.40;97.20;;;;;;1720940;28;20201;-70
2023/06/12 05:14:14;;;;;;;7.27;6.50;;;20.40;97.20;;;;;;1720904;28;20193;-70
2023/06/12 05:15:06;;;;;;;7.03;6.32;;;20.50;97.20;;;;;;1720464;28;20366;-70
2023/06/12 05:15:59;;;;;;;7.53;6.72;;;20.50;97.20;;;;;;1719355;28;20201;-70
2023/06/12 05:16:50;;;;;;;8.88;6.57;;;20.50;97.20;;;;;;1720557;28;20208;-70
2023/06/12 05:17:42;;;;;;;10.10;6.97;;;20.50;97.20;;;;;;1720549;28;20201;-70
2023/06/12 05:18:33;;;;;;;7.32;6.43;;;20.50;97.20;;;;;;1720230;28;20197;-70
2023/06/12 05:19:25;;;;;;;10.40;7.17;;;20.60;97.20;;;;;;1720560;28;20201;-70
2023/06/12 05:20:17;;;;;;;8.75;7.03;;;20.60;97.20;;;;;;1720378;28;20228;-70
2023/06/12 05:21:09;;;;;;;7.53;6.55;;;20.60;97.20;;;;;;1720436;28;20204;-70
2023/06/12 05:21:59;;;;;;;18.67;7.90;;;20.70;97.20;;;;;;1713951;28;20712;-70
2023/06/12 05:22:51;;;;;;;10.80;7.00;;;20.70;97.20;;;;;;1713765;28;20580;-70
2023/06/12 05:23:42;;;;;;;7.35;6.65;;;20.70;97.20;;;;;;1713946;28;20209;-70
2023/06/12 05:24:34;;;;;;;11.82;6.80;;;20.70;97.20;;;;;;1718072;28;20251;-70
2023/06/12 05:25:25;;;;;;;8.60;7.15;;;20.70;97.20;;;;;;1720565;28;20204;-70
2023/06/12 05:26:16;;;;;;;8.27;7.47;;;20.80;97.20;;;;;;1720463;28;20205;-70
2023/06/12 05:27:07;;;;;;;8.73;6.97;;;20.80;97.20;;;;;;1720507;28;20201;-70
2023/06/12 05:27:59;;;;;;;7.97;7.10;;;20.80;97.20;;;;;;1720494;28;20205;-70
2023/06/12 05:28:50;;;;;;;7.85;7.05;;;20.80;97.20;;;;;;1720488;28;20201;-70
2023/06/12 05:29:41;;;;;;;8.50;6.80;;;20.80;97.20;;;;;;1720541;28;20657;-70
2023/06/12 05:30:32;;;;;;;8.82;7.18;;;20.80;97.20;;;;;;1720279;28;20467;-70
2023/06/12 05:31:25;;;;;;;12.30;6.80;;;20.80;97.20;;;;;;1719863;28;20203;-70
2023/06/12 05:32:17;;;;;;;11.93;7.47;;;20.90;97.20;;;;;;1719553;28;20212;-70
2023/06/12 05:33:08;;;;;;;12.48;6.90;;;20.90;97.20;;;;;;1717519;28;20194;-71
2023/06/12 05:33:59;;;;;;;12.43;7.60;;;20.90;97.20;;;;;;1720305;28;20599;-71
2023/06/12 05:34:51;;;;;;;8.30;7.50;;;20.90;97.20;;;;;;1720332;28;20220;-71
2023/06/12 05:35:43;;;;;;;9.98;6.63;;;20.90;97.20;;;;;;1720487;28;20213;-71
2023/06/12 05:36:36;;;;;;;8.15;7.32;;;20.90;97.20;;;;;;1720453;28;20193;-71
2023/06/12 05:37:27;;;;;;;14.90;7.75;;;21.00;97.20;;;;;;1720472;28;20233;-71
2023/06/12 05:38:19;;;;;;;8.63;7.83;;;21.00;97.20;;;;;;1720281;28;20205;-72
2023/06/12 05:39:10;;;;;;;11.15;7.40;;;21.00;97.20;;;;;;1720210;28;20600;-72
2023/06/12 05:40:03;;;;;;;7.93;7.23;;;21.00;97.20;;;;;;1720510;28;20259;-72
2023/06/12 05:40:54;;;;;;;7.10;6.47;;;21.00;97.20;;;;;;1720373;28;20559;-72
2023/06/12 05:41:46;;;;;;;9.13;7.20;;;21.00;97.20;;;;;;1720543;28;20287;-72
2023/06/12 05:42:37;;;;;;;11.10;7.35;;;21.10;97.20;;;;;;1720409;28;20216;-72
2023/06/12 05:43:28;;;;;;;8.10;7.30;;;21.10;97.20;;;;;;1720064;28;20223;-70
2023/06/12 05:44:19;;;;;;;7.93;6.60;;;21.10;97.20;;;;;;1720440;28;20619;-70
2023/06/12 05:45:11;;;;;;;13.10;7.50;;;21.10;97.20;;;;;;1720117;28;20619;-70
2023/06/12 05:46:02;;;;;;;8.63;7.70;;;21.10;97.20;;;;;;1716867;28;20792;-71
2023/06/12 05:46:55;;;;;;;7.60;6.93;;;21.10;97.20;;;;;;1720461;28;20291;-70
2023/06/12 05:47:46;;;;;;;10.50;7.13;;;21.20;97.20;;;;;;1720458;28;20209;-70
2023/06/12 05:48:38;;;;;;;7.60;7.00;;;21.20;97.20;;;;;;1719648;28;20251;-74
2023/06/12 05:49:29;;;;;;;21.10;8.88;;;21.20;97.20;;;;;;1720433;28;20206;-70
2023/06/12 05:50:21;;;;;;;10.90;7.47;;;21.20;97.20;;;;;;1719532;28;20653;-70
2023/06/12 05:51:12;;;;;;;16.80;8.20;;;21.20;97.20;;;;;;1716701;28;20204;-70
2023/06/12 05:52:05;;;;;;;17.57;8.63;;;21.30;97.20;;;;;;1720486;28;20213;-70
2023/06/12 05:52:56;;;;;;;17.42;8.40;;;21.30;97.20;;;;;;1720270;28;20284;-70
2023/06/12 05:53:47;;;;;;;14.20;7.63;;;21.30;97.20;;;;;;1720217;28;20665;-70
2023/06/12 05:54:38;;;;;;;25.52;9.20;;;21.30;97.20;;;;;;1720434;28;20209;-70
2023/06/12 05:55:30;;;;;;;27.60;8.50;;;21.30;97.20;;;;;;1718588;28;20197;-70
2023/06/12 05:56:22;;;;;;;20.67;8.88;;;21.30;97.20;;;;;;1716871;28;20197;-70
2023/06/12 05:57:15;;;;;;;19.65;8.73;;;21.40;97.20;;;;;;1720444;28;20229;-70
2023/06/12 05:58:06;;;;;;;46.50;10.75;;;21.40;97.20;;;;;;1720132;28;20228;-70
2023/06/12 05:58:57;;;;;;;125.43;16.90;;;21.40;97.20;;;;;;1720345;28;20296;-70
2023/06/12 05:59:48;;;;;;;28.58;9.80;;;21.50;97.20;;;;;;1720364;28;20270;-70
2023/06/12 06:00:40;;;;;;;27.80;9.07;;;21.50;97.20;;;;;;1720068;28;20267;-71
2023/06/12 06:01:31;;;;;;;27.83;9.98;;;21.50;97.20;;;;;;1720400;28;20592;-71
2023/06/12 06:02:25;;;;;;;28.10;9.25;;;21.50;97.20;;;;;;1720573;28;20649;-71
2023/06/12 06:03:16;;;;;;;55.38;11.80;;;21.50;97.20;;;;;;1721283;28;20216;-71
2023/06/12 06:04:11;;;;;;;56.67;9.95;;;21.60;97.20;;;;;;1718989;28;20225;-70
2023/06/12 06:05:02;;;;;;;14.93;8.38;;;21.60;97.20;;;;;;1721668;28;20800;-70
2023/06/12 06:05:54;;;;;;;44.88;10.20;;;21.60;97.20;;;;;;1721423;28;20653;-70
2023/06/12 06:06:46;;;;;;;24.50;9.52;;;21.70;97.20;;;;;;1724633;28;20197;-71
2023/06/12 06:07:38;;;;;;;17.90;8.13;;;21.70;97.20;;;;;;1721587;28;20193;-71
2023/06/12 06:08:29;;;;;;;25.77;9.48;;;21.70;97.20;;;;;;1721101;28;20197;-70
2023/06/12 06:09:21;;;;;;;22.80;7.93;;;21.70;97.20;;;;;;1721485;28;20193;-70
2023/06/12 06:10:11;;;;;;;18.38;8.77;;;21.80;97.20;;;;;;1721515;28;20205;-70
2023/06/12 06:11:03;;;;;;;35.60;8.87;;;21.80;97.20;;;;;;1721632;28;20197;-70
2023/06/12 06:11:55;;;;;;;29.27;9.98;;;21.80;97.20;;;;;;1721624;28;20201;-70
2023/06/12 06:12:45;;;;;;;22.02;8.90;;;21.80;97.20;;;;;;1721659;28;20236;-70
2023/06/12 06:13:37;;;;;;;58.47;11.77;;;21.80;97.20;;;;;;1721596;28;20208;-70
2023/06/12 06:14:29;;;;;;;19.40;8.15;;;21.80;97.20;;;;;;1721590;28;20212;-70
2023/06/12 06:15:21;;;;;;;11.07;7.78;;;21.80;97.20;;;;;;1721601;28;20232;-70
2023/06/12 06:16:11;;;;;;;23.33;8.65;;;21.80;97.20;;;;;;1720953;28;20205;-71
2023/06/12 06:17:03;;;;;;;8.43;7.27;;;21.90;97.20;;;;;;1721600;28;20300;-71
2023/06/12 06:17:56;;;;;;;7.82;7.22;;;21.90;97.20;;;;;;1721436;28;20212;-71
2023/06/12 06:18:48;;;;;;;8.02;7.30;;;21.90;97.20;;;;;;1719794;28;20240;-71
2023/06/12 06:19:38;;;;;;;8.68;7.30;;;21.90;97.20;;;;;;1720843;28;20212;-71
2023/06/12 06:20:30;;;;;;;8.33;7.30;;;21.90;97.20;;;;;;1719441;28;20199;-71
2023/06/12 06:21:21;;;;;;;8.10;6.80;;;21.90;97.20;;;;;;1721601;28;20204;-71
2023/06/12 06:22:14;;;;;;;7.67;6.80;;;21.90;97.20;;;;;;1715179;28;20229;-71
2023/06/12 06:23:05;;;;;;;8.15;7.35;;;22.00;97.20;;;;;;1714896;28;20272;-74
2023/06/12 06:23:57;;;;;;;7.53;6.70;;;22.00;97.20;;;;;;1721334;28;20291;-70
2023/06/12 06:24:47;;;;;;;6.95;6.45;;;22.00;97.20;;;;;;1721317;28;20208;-70
2023/06/12 06:25:39;;;;;;;9.13;8.33;;;22.00;97.20;;;;;;1721246;28;20203;-70
2023/06/12 06:26:31;;;;;;;8.77;7.30;;;22.00;97.20;;;;;;1720704;28;20206;-70
2023/06/12 06:27:23;;;;;;;9.82;7.22;;;22.00;97.20;;;;;;1720408;28;20197;-71
2023/06/12 06:28:14;;;;;;;8.27;7.15;;;22.00;97.20;;;;;;1719844;28;20229;-71
2023/06/12 06:29:06;;;;;;;7.65;6.95;;;22.00;97.20;;;;;;1720790;28;20280;-71
2023/06/12 06:29:56;;;;;;;9.55;7.07;;;22.00;97.20;;;;;;1721318;28;20229;-71
2023/06/12 06:30:48;;;;;;;8.73;7.80;;;22.00;97.20;;;;;;1721140;28;20243;-71
2023/06/12 06:31:39;;;;;;;7.60;6.80;;;22.00;97.20;;;;;;1721500;28;20205;-71
2023/06/12 06:32:31;;;;;;;7.50;6.80;;;22.10;97.20;;;;;;1721431;28;20205;-71
2023/06/12 06:33:23;;;;;;;8.20;7.40;;;22.10;97.20;;;;;;1720872;28;20966;-71
2023/06/12 06:34:14;;;;;;;9.77;7.22;;;22.10;97.20;;;;;;1720906;28;20209;-71
2023/06/12 06:35:06;;;;;;;7.90;7.10;;;22.20;97.20;;;;;;1721306;28;20196;-71
2023/06/12 06:35:57;;;;;;;9.20;7.18;;;22.20;97.20;;;;;;1721570;28;20206;-71
2023/06/12 06:36:48;;;;;;;8.15;7.45;;;22.20;97.20;;;;;;1720347;28;20599;-71
2023/06/12 06:37:40;;;;;;;7.63;6.93;;;22.30;97.20;;;;;;1714706;28;20557;-71
2023/06/12 06:38:30;;;;;;;8.57;7.20;;;22.30;97.20;;;;;;1714495;28;20202;-71
2023/06/12 06:39:22;;;;;;;10.27;6.90;;;22.30;97.20;;;;;;1719630;28;20190;-70
2023/06/12 06:40:14;;;;;;;9.35;7.35;;;22.30;97.20;;;;;;1721345;28;20240;-71
2023/06/12 06:41:06;;;;;;;7.70;6.90;;;22.40;97.20;;;;;;1721500;28;20239;-71
2023/06/12 06:41:57;;;;;;;8.05;7.25;;;22.40;97.20;;;;;;1721458;28;20211;-71
2023/06/12 06:42:48;;;;;;;10.20;7.10;;;22.40;97.20;;;;;;1721446;28;20205;-71
2023/06/12 06:43:39;;;;;;;7.72;6.95;;;22.40;97.20;;;;;;1721008;28;20221;-70
2023/06/12 06:44:31;;;;;;;10.40;8.30;;;22.40;97.20;;;;;;1721304;28;20201;-70
2023/06/12 06:45:21;;;;;;;8.10;7.28;;;22.40;97.20;;;;;;1721360;28;20205;-71
2023/06/12 06:46:14;;;;;;;8.60;7.50;;;22.50;97.20;;;;;;1721433;28;20277;-71
2023/06/12 06:47:07;;;;;;;7.72;7.05;;;22.50;97.20;;;;;;1721391;28;20506;-71
2023/06/12 06:47:59;;;;;;;7.47;6.88;;;22.50;97.20;;;;;;1721360;28;20201;-71
2023/06/12 06:48:52;;;;;;;6.88;6.30;;;22.50;97.20;;;;;;1721416;28;20212;-71
2023/06/12 06:49:43;;;;;;;7.38;6.70;;;22.50;97.20;;;;;;1716620;28;20206;-71
2023/06/12 06:50:34;;;;;;;8.40;7.30;;;22.50;97.20;;;;;;1714686;28;20228;-71
2023/06/12 06:51:25;;;;;;;7.65;7.05;;;22.50;97.20;;;;;;1714768;28;20585;-71
2023/06/12 06:52:19;;;;;;;8.33;7.43;;;22.50;97.20;;;;;;1714691;28;20197;-71
2023/06/12 06:53:10;;;;;;;8.10;6.78;;;22.50;97.20;;;;;;1714643;28;20507;-71
2023/06/12 06:54:02;;;;;;;8.40;7.77;;;22.50;97.20;;;;;;1714754;28;20256;-71
2023/06/12 06:54:52;;;;;;;7.13;6.53;;;22.60;97.20;;;;;;1714671;28;20202;-71
2023/06/12 06:55:44;;;;;;;7.00;6.50;;;22.60;97.20;;;;;;1714674;28;20216;-71
2023/06/12 06:56:35;;;;;;;10.73;7.10;;;22.60;97.20;;;;;;1714739;28;20556;-71
2023/06/12 06:57:27;;;;;;;7.93;7.23;;;22.60;97.20;;;;;;1714622;28;20220;-71
2023/06/12 06:58:19;;;;;;;8.32;7.35;;;22.60;97.20;;;;;;1714282;28;20453;-71
2023/06/12 06:59:10;;;;;;;8.00;7.22;;;22.60;97.20;;;;;;1714534;28;20202;-71
2023/06/12 07:00:05;;;;;;;7.37;6.77;;;22.60;97.20;;;;;;1714693;28;20256;-71
2023/06/12 07:00:56;;;;;;;8.30;7.50;;;22.70;97.20;;;;;;1714567;28;20808;-71
2023/06/12 07:01:47;;;;;;;8.87;7.40;;;22.70;97.20;;;;;;1718334;28;20193;-71
2023/06/12 07:02:40;;;;;;;8.35;7.65;;;22.70;97.20;;;;;;1721340;28;20256;-71
2023/06/12 07:03:32;;;;;;;7.70;6.80;;;22.70;97.20;;;;;;1721236;28;20225;-71
2023/06/12 07:04:24;;;;;;;8.20;7.35;;;22.80;97.20;;;;;;1721343;28;20207;-71
2023/06/12 07:05:16;;;;;;;8.45;7.47;;;22.80;97.20;;;;;;1721299;28;20201;-71
2023/06/12 07:06:06;;;;;;;8.23;7.53;;;22.80;97.20;;;;;;1721288;28;20237;-71
2023/06/12 07:06:58;;;;;;;7.57;6.70;;;22.90;97.20;;;;;;1721349;28;20210;-71
2023/06/12 07:07:49;;;;;;;8.45;7.55;;;22.90;97.20;;;;;;1721234;28;20669;-71
2023/06/12 07:08:41;;;;;;;12.32;7.43;;;22.90;97.20;;;;;;1721096;28;20260;-71
2023/06/12 07:09:32;;;;;;;10.93;7.60;;;23.00;97.20;;;;;;1721286;28;20209;-71
2023/06/12 07:10:23;;;;;;;10.53;7.30;;;23.00;97.20;;;;;;1721262;28;20201;-71
2023/06/12 07:11:14;;;;;;;8.35;7.68;;;23.00;97.20;;;;;;1721271;28;20208;-71
2023/06/12 07:12:06;;;;;;;7.93;7.33;;;23.10;97.20;;;;;;1721271;28;20211;-71
2023/06/12 07:12:57;;;;;;;9.00;7.57;;;23.10;97.20;;;;;;1721271;28;20216;-71
2023/06/12 07:13:49;;;;;;;7.97;6.83;;;23.10;97.20;;;;;;1721266;28;20211;-71
2023/06/12 07:14:40;;;;;;;7.53;6.70;;;23.10;97.20;;;;;;1720747;28;20212;-71
2023/06/12 07:15:31;;;;;;;8.83;7.93;;;23.10;97.20;;;;;;1721290;28;20211;-71
2023/06/12 07:16:22;;;;;;;8.40;7.38;;;23.10;97.20;;;;;;1721270;28;20198;-71
2023/06/12 07:17:14;;;;;;;8.93;7.20;;;23.20;97.20;;;;;;1721166;28;20208;-71
2023/06/12 07:18:05;;;;;;;8.35;7.60;;;23.20;97.20;;;;;;1720984;28;20936;-71
2023/06/12 07:18:56;;;;;;;8.33;7.20;;;23.20;97.20;;;;;;1721258;28;20566;-71
2023/06/12 07:19:49;;;;;;;8.68;7.82;;;23.20;97.20;;;;;;1721167;28;20205;-71
2023/06/12 07:20:41;;;;;;;10.10;7.25;;;23.20;97.20;;;;;;1721147;28;20701;-71
2023/06/12 07:21:32;;;;;;;8.20;7.43;;;23.30;97.20;;;;;;1721192;28;20197;-71
2023/06/12 07:22:23;;;;;;;7.80;7.20;;;23.30;97.20;;;;;;1721233;28;20220;-71
2023/06/12 07:23:15;;;;;;;8.07;7.30;;;23.30;97.20;;;;;;1720831;28;20197;-71
2023/06/12 07:24:06;;;;;;;12.50;7.85;;;23.30;97.20;;;;;;1721127;28;20264;-71
2023/06/12 07:24:58;;;;;;;8.17;7.47;;;23.40;97.20;;;;;;1720989;28;20198;-71
2023/06/12 07:25:49;;;;;;;8.93;6.80;;;23.40;97.20;;;;;;1721119;28;20201;-71
2023/06/12 07:26:40;;;;;;;11.15;7.28;;;23.40;97.20;;;;;;1720759;28;20634;-71
2023/06/12 07:27:32;;;;;;;8.00;7.13;;;23.40;97.20;;;;;;1721056;28;20201;-71
2023/06/12 07:28:23;;;;;;;8.20;7.50;;;23.40;97.20;;;;;;1720750;28;20664;-71
2023/06/12 07:29:14;;;;;;;8.55;7.40;;;23.50;97.20;;;;;;1721048;28;20632;-71
2023/06/12 07:30:08;;;;;;;7.73;7.07;;;23.50;97.20;;;;;;1720919;28;20197;-71
2023/06/12 07:31:00;;;;;;;8.00;7.20;;;23.50;97.20;;;;;;1720835;28;20840;-71
2023/06/12 07:31:51;;;;;;;8.02;7.22;;;23.50;97.20;;;;;;1721105;28;20205;-71
2023/06/12 07:32:42;;;;;;;7.70;7.10;;;23.60;97.20;;;;;;1721244;28;20193;-71
2023/06/12 07:33:33;;;;;;;8.02;7.20;;;23.60;97.20;;;;;;1721101;28;20201;-71
2023/06/12 07:34:25;;;;;;;8.20;7.03;;;23.60;97.20;;;;;;1721128;28;20274;-71
2023/06/12 07:35:17;;;;;;;7.95;7.35;;;23.60;97.20;;;;;;1721112;28;20202;-71
2023/06/12 07:36:09;;;;;;;9.02;7.25;;;23.70;97.20;;;;;;1720868;28;20288;-71
2023/06/12 07:37:00;;;;;;;8.07;7.28;;;23.70;97.20;;;;;;1720738;28;20209;-71
2023/06/12 07:37:52;;;;;;;8.25;7.55;;;23.70;97.20;;;;;;1720999;28;20264;-71
2023/06/12 07:38:43;;;;;;;8.10;7.40;;;23.70;97.20;;;;;;1720728;28;20209;-71
2023/06/12 07:39:34;;;;;;;15.50;8.20;;;23.80;97.20;;;;;;1721094;28;20197;-71
2023/06/12 07:40:25;;;;;;;8.93;8.15;;;23.80;97.20;;;;;;1721005;28;20220;-71
2023/06/12 07:41:17;;;;;;;10.57;7.67;;;23.80;97.20;;;;;;1720844;28;20211;-71
2023/06/12 07:42:08;;;;;;;8.13;6.97;;;23.80;97.20;;;;;;1721081;28;20661;-71
2023/06/12 07:43:00;;;;;;;9.93;7.10;;;23.90;97.20;;;;;;1721106;28;20610;-71
2023/06/12 07:43:50;;;;;;;11.60;8.15;;;23.90;97.20;;;;;;1720742;28;20209;-71
2023/06/12 07:44:42;;;;;;;7.37;6.70;;;23.90;97.20;;;;;;1721100;28;20205;-71
2023/06/12 07:45:33;;;;;;;7.65;7.05;;;24.00;97.20;;;;;;1720955;28;20201;-71
2023/06/12 07:46:25;;;;;;;8.23;7.43;;;24.00;97.20;;;;;;1721155;28;20207;-71
2023/06/12 07:47:16;;;;;;;8.30;6.90;;;24.00;97.20;;;;;;1720755;28;20452;-71
2023/06/12 07:48:08;;;;;;;8.43;7.70;;;24.10;97.20;;;;;;1720761;28;20196;-71
2023/06/12 07:48:59;;;;;;;7.93;7.05;;;24.10;97.20;;;;;;1720784;28;20284;-71
2023/06/12 07:49:50;;;;;;;7.80;7.10;;;24.10;97.20;;;;;;1720917;28;20212;-71
2023/06/12 07:50:43;;;;;;;8.07;6.78;;;24.20;97.20;;;;;;1720810;28;20228;-71
2023/06/12 07:51:34;;;;;;;11.60;6.72;;;24.20;97.20;;;;;;1714347;28;20202;-71
2023/06/12 07:52:26;;;;;;;10.13;7.20;;;24.20;97.20;;;;;;1714343;28;20202;-71
2023/06/12 07:53:17;;;;;;;9.60;7.05;;;24.30;97.20;;;;;;1714395;28;20517;-71
2023/06/12 07:54:09;;;;;;;10.60;7.20;;;24.30;97.20;;;;;;1716301;28;20202;-71
2023/06/12 07:55:00;;;;;;;7.90;7.10;;;24.30;97.20;;;;;;1720973;28;20201;-71
2023/06/12 07:55:52;;;;;;;7.77;7.13;;;24.30;97.20;;;;;;1720975;28;20205;-71
2023/06/12 07:56:44;;;;;;;8.00;7.18;;;24.40;97.20;;;;;;1720570;28;20197;-71
2023/06/12 07:57:35;;;;;;;14.63;7.93;;;24.40;97.20;;;;;;1719640;28;20194;-71
2023/06/12 07:58:27;;;;;;;7.70;7.00;;;24.40;97.20;;;;;;1720489;28;20210;-71
2023/06/12 07:59:19;;;;;;;7.57;6.88;;;24.40;97.20;;;;;;1720953;28;20280;-71
2023/06/12 08:00:11;;;;;;;7.30;6.78;;;24.40;97.20;;;;;;1720987;28;20234;-71
2023/06/12 08:01:04;;;;;;;7.43;6.82;;;24.40;97.20;;;;;;1720801;28;20199;-71
2023/06/12 08:01:55;;;;;;;7.30;6.70;;;24.50;97.20;;;;;;1720598;28;20247;-71
2023/06/12 08:02:58;;;;;;;7.83;6.13;;;24.50;97.20;;;;;;1720993;28;20232;-71
2023/06/12 08:03:49;;;;;;;7.15;6.55;;;24.50;97.20;;;;;;1720657;28;20453;-71
2023/06/12 08:04:42;;;;;;;7.72;7.07;;;24.50;97.20;;;;;;1720899;28;20216;-71
2023/06/12 08:05:34;;;;;;;7.40;6.90;;;24.50;97.20;;;;;;1720774;28;20208;-71
2023/06/12 08:06:27;;;;;;;8.70;7.30;;;24.60;97.20;;;;;;1720971;28;20675;-71
2023/06/12 08:07:19;;;;;;;9.65;6.75;;;24.60;97.20;;;;;;1720592;28;20201;-71
2023/06/12 08:08:12;;;;;;;7.18;6.20;;;24.60;97.20;;;;;;1720610;28;20567;-71
2023/06/12 08:09:03;;;;;;;6.63;6.03;;;24.60;97.20;;;;;;1720705;28;20282;-71
2023/06/12 08:09:55;;;;;;;10.55;7.00;;;24.70;97.20;;;;;;1720875;28;20441;-71
2023/06/12 08:10:45;;;;;;;6.87;6.23;;;24.70;97.20;;;;;;1720852;28;20240;-71
2023/06/12 08:11:37;;;;;;;7.20;6.60;;;24.70;97.20;;;;;;1720674;28;20675;-71
2023/06/12 08:12:28;;;;;;;7.20;6.70;;;24.70;97.20;;;;;;1720891;28;20212;-71
2023/06/12 08:13:20;;;;;;;8.03;7.20;;;24.70;97.20;;;;;;1720678;28;20207;-71
2023/06/12 08:14:11;;;;;;;7.57;6.88;;;24.70;97.20;;;;;;1720332;28;20205;-71
2023/06/12 08:15:03;;;;;;;6.60;6.10;;;24.70;97.20;;;;;;1720938;28;20284;-71
2023/06/12 08:15:54;;;;;;;7.03;6.43;;;24.80;97.20;;;;;;1720754;28;20255;-71
2023/06/12 08:16:46;;;;;;;7.57;6.80;;;24.80;97.20;;;;;;1720755;28;20209;-71
2023/06/12 08:17:40;;;;;;;6.80;6.20;;;24.80;97.20;;;;;;1720737;28;20205;-71
2023/06/12 08:18:32;;;;;;;6.70;6.10;;;24.90;97.20;;;;;;1720541;28;20232;-71
2023/06/12 08:19:23;;;;;;;7.82;6.25;;;24.90;97.20;;;;;;1720636;28;20225;-71
2023/06/12 08:20:15;;;;;;;7.32;6.65;;;25.00;97.20;;;;;;1720666;28;20209;-71
2023/06/12 08:21:07;;;;;;;7.25;6.55;;;25.00;97.20;;;;;;1720853;28;20193;-71
2023/06/12 08:21:59;;;;;;;6.55;6.05;;;25.00;97.20;;;;;;1720877;28;20209;-71
2023/06/12 08:22:56;;;;;;;7.32;6.55;;;25.00;97.20;;;;;;1720872;28;20205;-71
2023/06/12 08:23:47;;;;;;;7.88;6.50;;;25.00;97.20;;;;;;1720914;28;20205;-71
2023/06/12 08:24:41;;;;;;;7.07;6.37;;;25.10;97.20;;;;;;1720585;28;20217;-71
2023/06/12 08:25:32;;;;;;;7.28;6.63;;;25.10;97.20;;;;;;1720705;28;20208;-71
2023/06/12 08:26:24;;;;;;;6.80;6.28;;;25.10;97.20;;;;;;1719908;28;20615;-71
2023/06/12 08:27:15;;;;;;;7.43;6.82;;;25.10;97.20;;;;;;1720432;28;20200;-71
2023/06/12 08:28:06;;;;;;;7.00;6.50;;;25.10;97.20;;;;;;1720505;28;20197;-71
2023/06/12 08:28:57;;;;;;;7.83;7.03;;;25.10;97.20;;;;;;1720574;28;20209;-71
2023/06/12 08:29:49;;;;;;;8.70;6.20;;;25.20;97.20;;;;;;1720648;28;20444;-71
2023/06/12 08:30:40;;;;;;;8.10;6.25;;;25.20;97.20;;;;;;1720591;28;20319;-71
2023/06/12 08:31:33;;;;;;;7.47;6.67;;;25.30;97.20;;;;;;1720675;28;20412;-71
2023/06/12 08:32:24;;;;;;;8.13;5.70;;;25.30;97.20;;;;;;1720482;28;20456;-71
2023/06/12 08:33:18;;;;;;;7.60;5.77;;;25.40;97.20;;;;;;1720483;28;20441;-71
2023/06/12 08:34:09;;;;;;;8.32;5.75;;;25.40;97.20;;;;;;1720735;28;20205;-71
2023/06/12 08:35:01;;;;;;;7.20;5.67;;;25.50;97.20;;;;;;1720763;28;20205;-71
2023/06/12 08:35:51;;;;;;;7.87;6.50;;;25.50;97.20;;;;;;1720327;28;20198;-71
2023/06/12 08:36:43;;;;;;;6.30;5.70;;;25.60;97.20;;;;;;1720536;28;20448;-71
2023/06/12 08:37:35;;;;;;;6.95;6.13;;;25.70;97.20;;;;;;1720462;28;20197;-71
2023/06/12 08:38:27;;;;;;;9.63;6.40;;;25.70;97.20;;;;;;1720443;28;20205;-71
2023/06/12 08:39:18;;;;;;;8.30;6.53;;;25.80;97.20;;;;;;1720449;28;20201;-71
2023/06/12 08:40:11;;;;;;;6.73;5.93;;;25.80;97.20;;;;;;1720638;28;20540;-71
2023/06/12 08:41:03;;;;;;;6.87;6.17;;;25.90;97.20;;;;;;1720672;28;20699;-71
2023/06/12 08:42:02;;;;;;;7.40;6.07;;;25.90;97.20;;;;;;1720720;28;20436;-71
2023/06/12 08:42:53;;;;;;;6.30;5.80;;;26.00;97.20;;;;;;1720748;28;20820;-71
2023/06/12 08:43:46;;;;;;;6.40;5.50;;;26.00;97.20;;;;;;1720471;28;20474;-71
2023/06/12 08:44:39;;;;;;;6.47;5.87;;;26.10;97.20;;;;;;1720606;28;20524;-71
2023/06/12 08:45:33;;;;;;;6.40;5.63;;;26.20;97.20;;;;;;1720429;28;20455;-71
2023/06/12 08:46:28;;;;;;;7.03;6.32;;;26.30;97.20;;;;;;1720709;28;20874;-71
2023/06/12 08:47:21;;;;;;;11.73;6.67;;;26.30;97.20;;;;;;1720390;28;20585;-71
2023/06/12 08:48:15;;;;;;;13.57;6.75;;;26.30;97.20;;;;;;1720398;28;20841;-71
2023/06/12 08:49:09;;;;;;;8.40;7.33;;;26.40;97.20;;;;;;1720383;28;20197;-71
2023/06/12 08:50:00;;;;;;;7.67;6.97;;;26.40;97.20;;;;;;1720720;28;20448;-71
2023/06/12 08:50:53;;;;;;;10.37;6.20;;;26.50;97.20;;;;;;1720041;28;20468;-71
2023/06/12 08:51:43;;;;;;;9.23;6.70;;;26.50;97.20;;;;;;1720686;28;20221;-71
2023/06/12 08:52:37;;;;;;;12.70;6.40;;;26.60;97.20;;;;;;1720457;28;20503;-71
2023/06/12 08:53:28;;;;;;;6.77;6.17;;;26.60;97.20;;;;;;1720649;28;20202;-71
2023/06/12 08:54:20;;;;;;;9.93;6.20;;;26.60;97.20;;;;;;1720417;28;20552;-71
2023/06/12 08:55:13;;;;;;;7.40;6.73;;;26.70;97.20;;;;;;1720641;28;20463;-71
2023/06/12 08:56:06;;;;;;;7.80;6.00;;;26.70;97.20;;;;;;1720318;28;20444;-71
2023/06/12 08:56:58;;;;;;;54.20;12.20;;;26.70;97.20;;;;;;1720415;28;20948;-71
2023/06/12 08:57:51;;;;;;;36.95;9.75;;;26.70;97.20;;;;;;1720608;28;20476;-71
2023/06/12 08:58:41;;;;;;;47.53;10.37;;;26.80;97.20;;;;;;1720392;28;20622;-71
2023/06/12 08:59:34;;;;;;;6.90;5.90;;;26.80;97.20;;;;;;1720386;28;20538;-71
2023/06/12 09:00:25;;;;;;;6.63;6.03;;;26.80;97.20;;;;;;1720638;28;20955;-71
2023/06/12 09:01:17;;;;;;;15.70;7.03;;;26.80;97.20;;;;;;1720489;28;20499;-71
2023/06/12 09:02:09;;;;;;;27.93;8.80;;;26.80;97.20;;;;;;1720606;28;20828;-71
2023/06/12 09:03:04;;;;;;;81.10;12.97;;;26.80;97.20;;;;;;1720419;28;20898;-71
2023/06/12 09:04:00;;;;;;;6.93;6.13;;;26.90;97.20;;;;;;1720709;28;20955;-71
2023/06/12 09:04:59;;;;;;;66.60;12.17;;;26.90;97.20;;;;;;1719137;28;20487;-71
2023/06/12 09:05:51;;;;;;;128.30;20.03;;;26.90;97.20;;;;;;1720631;28;20452;-71
2023/06/12 09:06:43;;;;;;;205.20;26.43;;;26.90;97.20;;;;;;1720473;28;20884;-71
2023/06/12 09:07:39;;;;;;;73.40;13.90;;;27.00;97.20;;;;;;1720284;28;20568;-71
2023/06/12 09:08:31;;;;;;;26.10;8.43;;;27.10;97.20;;;;;;1720353;28;20501;-71
2023/06/12 09:09:22;;;;;;;106.77;17.57;;;27.20;97.20;;;;;;1720284;28;20448;-71
2023/06/12 09:10:14;;;;;;;29.27;8.60;;;27.20;97.20;;;;;;1720351;28;20440;-71
2023/06/12 09:11:05;;;;;;;133.47;20.30;;;27.30;97.20;;;;;;1720634;28;20267;-71
2023/06/12 09:11:57;;;;;;;110.30;17.80;;;27.30;97.20;;;;;;1720539;28;20506;-70
2023/06/12 09:12:52;;;;;;;6.87;6.17;;;27.40;97.20;;;;;;1720624;28;20731;-71
2023/06/12 09:13:44;;;;;;;6.80;6.20;;;27.40;97.20;;;;;;1720513;28;20864;-71
2023/06/12 09:14:35;;;;;;;8.07;6.10;;;27.30;97.20;;;;;;1720552;28;20474;-71
2023/06/12 09:15:27;;;;;;;33.77;9.87;;;27.40;97.20;;;;;;1720319;28;20444;-71
2023/06/12 09:16:18;;;;;;;7.67;6.37;;;27.40;97.20;;;;;;1720624;28;20959;-71
2023/06/12 09:17:10;;;;;;;6.80;6.30;;;27.40;97.20;;;;;;1720277;28;20445;-71
2023/06/12 09:18:01;;;;;;;12.33;5.83;;;27.30;97.20;;;;;;1720248;28;20831;-70
2023/06/12 09:18:54;;;;;;;7.10;6.50;;;27.30;97.20;;;;;;1720542;28;20812;-71
2023/06/12 09:19:47;;;;;;;7.13;6.53;;;27.20;97.20;;;;;;1720337;28;20201;-71
2023/06/12 09:20:39;;;;;;;7.23;6.63;;;27.10;97.20;;;;;;1720540;28;20463;-71
2023/06/12 09:21:30;;;;;;;6.73;6.23;;;27.10;97.20;;;;;;1720368;28;20455;-71
2023/06/12 09:22:22;;;;;;;6.80;6.20;;;27.00;97.20;;;;;;1720595;28;20451;-71
2023/06/12 09:23:15;;;;;;;7.10;6.50;;;27.00;97.20;;;;;;1720543;28;20204;-71
2023/06/12 09:24:10;;;;;;;7.80;7.10;;;27.00;97.20;;;;;;1720537;28;20527;-71
2023/06/12 09:25:05;;;;;;;7.87;6.80;;;27.00;97.20;;;;;;1720181;28;20512;-71
2023/06/12 09:25:57;;;;;;;15.73;7.40;;;27.10;97.20;;;;;;1720607;28;20439;-71
2023/06/12 09:26:47;;;;;;;11.40;7.30;;;27.10;97.20;;;;;;1720286;28;21083;-71
2023/06/12 09:27:43;;;;;;;10.87;7.60;;;27.20;97.20;;;;;;1720294;28;21014;-71
2023/06/12 09:28:36;;;;;;;7.50;6.80;;;27.30;97.20;;;;;;1720156;28;20204;-70